Time;durP1;ratioP1;P1;durP2;ratioP2;P2;SDS_P1;SDS_P2;PMS_P1;PMS_P2;Temp;Humidity;BMP_temperature;BMP_pressure;BME280_temperature;BME280_humidity;BME280_pressure;Samples;Min_cycle;Max_cycle;Signal;HPM_P1;HPM_P2
2021/12/13 00:01:24;;;;;;;12.10;9.97;;;4.80;95.90;;;;;;6251583;28;20483;-68
2021/12/13 00:04:31;;;;;;;11.70;10.30;;;4.80;96.00;;;;;;6251786;28;20490;-68
2021/12/13 00:07:40;;;;;;;9.90;8.90;;;4.90;96.30;;;;;;6251701;28;20486;-68
2021/12/13 00:10:47;;;;;;;10.53;9.50;;;4.80;96.30;;;;;;6282534;28;20469;-68
2021/12/13 00:13:55;;;;;;;14.13;10.33;;;4.90;96.30;;;;;;6301738;28;20472;-68
2021/12/13 00:17:05;;;;;;;13.60;9.53;;;4.90;96.40;;;;;;6301276;28;20473;-69
2021/12/13 00:20:13;;;;;;;13.73;9.50;;;4.90;96.50;;;;;;6301222;28;20767;-69
2021/12/13 00:23:21;;;;;;;10.93;9.57;;;4.90;96.50;;;;;;6301153;28;20764;-69
2021/12/13 00:26:30;;;;;;;10.60;8.93;;;4.90;96.50;;;;;;6301522;28;20482;-68
2021/12/13 00:29:51;;;;;;;11.57;9.73;;;5.00;96.50;;;;;;6301139;28;20477;-68
2021/12/13 00:33:08;;;;;;;12.60;11.37;;;5.00;96.60;;;;;;6301331;28;20791;-69
2021/12/13 00:36:17;;;;;;;14.80;10.70;;;5.00;96.70;;;;;;6288146;28;20473;-69
2021/12/13 00:39:26;;;;;;;12.80;10.57;;;5.00;96.70;;;;;;6279233;28;20483;-69
2021/12/13 00:42:35;;;;;;;11.33;9.60;;;5.00;96.70;;;;;;6276972;28;20423;-69
2021/12/13 00:45:47;;;;;;;16.30;9.27;;;5.00;96.60;;;;;;6252486;28;20940;-69
2021/12/13 00:48:56;;;;;;;10.63;8.87;;;5.00;96.60;;;;;;6250881;28;20970;-68
2021/12/13 00:52:02;;;;;;;10.40;9.37;;;5.00;96.60;;;;;;6251271;28;20471;-68
2021/12/13 00:55:12;;;;;;;10.90;8.60;;;5.00;96.80;;;;;;6251027;28;20463;-69
2021/12/13 00:58:19;;;;;;;9.87;8.63;;;5.00;96.90;;;;;;6258156;28;20551;-68
2021/12/13 01:01:27;;;;;;;10.13;8.67;;;5.00;96.90;;;;;;6275403;28;21018;-68
2021/12/13 01:05:05;;;;;;;11.07;8.07;;;5.00;96.90;;;;;;6275349;28;20521;-68
2021/12/13 01:08:42;;;;;;;11.33;9.30;;;5.00;97.10;;;;;;6225140;28;20479;-68
2021/12/13 01:11:52;;;;;;;8.83;7.93;;;4.80;97.00;;;;;;6286993;28;20461;-69
2021/12/13 01:15:01;;;;;;;10.20;8.17;;;4.70;97.50;;;;;;6300735;28;20469;-68
2021/12/13 01:18:23;;;;;;;12.57;8.77;;;4.80;97.70;;;;;;6300117;28;20480;-69
2021/12/13 01:21:39;;;;;;;9.23;8.33;;;4.80;97.80;;;;;;6300757;28;20430;-70
2021/12/13 01:25:15;;;;;;;9.03;8.10;;;4.90;97.90;;;;;;6300015;28;20478;-68
2021/12/13 01:28:23;;;;;;;9.77;8.47;;;4.90;97.90;;;;;;6299947;28;20473;-68
2021/12/13 01:31:30;;;;;;;9.33;7.77;;;4.90;97.80;;;;;;6300302;28;20465;-69
2021/12/13 01:34:36;;;;;;;10.17;7.80;;;5.00;97.80;;;;;;6299661;28;20469;-69
2021/12/13 01:37:41;;;;;;;10.87;9.03;;;5.00;97.70;;;;;;6250407;28;20479;-69
2021/12/13 01:40:51;;;;;;;9.43;7.93;;;5.00;97.70;;;;;;6250263;28;20482;-68
2021/12/13 01:43:58;;;;;;;9.17;8.20;;;4.90;97.80;;;;;;6250609;28;20482;-69
2021/12/13 01:47:07;;;;;;;10.43;7.53;;;5.00;97.70;;;;;;6263329;28;20937;-69
2021/12/13 01:50:16;;;;;;;10.73;9.33;;;4.90;97.80;;;;;;6276065;28;20825;-67
2021/12/13 01:53:30;;;;;;;13.83;9.70;;;5.00;97.90;;;;;;6274296;28;20482;-66
2021/12/13 01:56:42;;;;;;;10.30;8.63;;;5.00;97.90;;;;;;6273838;28;20492;-66
2021/12/13 01:59:52;;;;;;;10.63;8.53;;;5.00;97.90;;;;;;6274006;28;20512;-66
2021/12/13 02:02:56;;;;;;;13.83;9.40;;;5.00;97.90;;;;;;6274021;28;20493;-66
2021/12/13 02:05:59;;;;;;;10.60;7.93;;;5.10;97.80;;;;;;6274547;28;20482;-65
2021/12/13 02:09:08;;;;;;;10.50;8.40;;;5.10;97.80;;;;;;6275021;28;20469;-67
2021/12/13 02:12:15;;;;;;;12.07;9.00;;;5.00;97.70;;;;;;6274316;28;20478;-65
2021/12/13 02:18:42;;;;;;;16.00;8.60;;;5.00;97.90;;;;;;6274198;28;20457;-65
2021/12/13 02:21:51;;;;;;;9.43;7.70;;;5.00;97.90;;;;;;6274883;28;20449;-66
2021/12/13 02:24:58;;;;;;;9.80;8.80;;;5.00;98.00;;;;;;6277013;28;20470;-66
2021/12/13 02:28:04;;;;;;;9.33;8.30;;;4.90;98.10;;;;;;6278856;28;20474;-66
2021/12/13 02:31:10;;;;;;;10.63;8.13;;;4.90;98.00;;;;;;6278418;28;20989;-66
2021/12/13 02:34:17;;;;;;;10.30;7.70;;;4.90;97.90;;;;;;6279058;28;20981;-65
2021/12/13 02:37:24;;;;;;;10.60;8.97;;;4.90;97.60;;;;;;6279286;28;20486;-65
2021/12/13 02:40:29;;;;;;;10.63;8.80;;;4.90;97.60;;;;;;6279217;28;20488;-65
2021/12/13 02:43:37;;;;;;;9.83;7.90;;;4.90;97.70;;;;;;6280878;28;20474;-65
2021/12/13 02:46:41;;;;;;;10.77;8.10;;;5.00;97.80;;;;;;6280222;28;20470;-66
2021/12/13 02:49:45;;;;;;;9.77;8.37;;;5.00;97.60;;;;;;6279596;28;20465;-65
2021/12/13 02:52:48;;;;;;;11.37;9.00;;;5.00;97.50;;;;;;6279469;28;21031;-65
2021/12/13 02:55:53;;;;;;;9.07;8.13;;;5.00;97.10;;;;;;6278982;28;20969;-66
2021/12/13 02:58:59;;;;;;;10.13;8.23;;;5.00;97.10;;;;;;6279870;28;20897;-65
2021/12/13 03:02:09;;;;;;;13.93;9.40;;;4.90;97.20;;;;;;6723935;22;20488;-64
2021/12/13 03:05:18;;;;;;;13.40;9.73;;;4.90;97.30;;;;;;6215006;28;20461;-65
2021/12/13 03:08:24;;;;;;;13.17;9.53;;;4.90;97.40;;;;;;6217150;28;20461;-63
2021/12/13 03:11:33;;;;;;;12.40;9.47;;;4.90;97.00;;;;;;6213258;28;20476;-65
2021/12/13 03:14:40;;;;;;;12.93;9.33;;;4.90;97.20;;;;;;6228426;28;20479;-64
2021/12/13 03:17:53;;;;;;;14.73;10.73;;;4.90;97.30;;;;;;6242393;28;20518;-62
2021/12/13 03:21:22;;;;;;;12.40;9.50;;;4.80;97.30;;;;;;6252760;28;20483;-62
2021/12/13 03:24:43;;;;;;;12.93;10.50;;;4.90;97.40;;;;;;6253171;28;20470;-62
2021/12/13 03:28:08;;;;;;;12.67;10.87;;;4.80;97.30;;;;;;6252934;28;20767;-62
2021/12/13 03:31:14;;;;;;;18.03;11.17;;;4.80;97.50;;;;;;6252570;28;20475;-63
2021/12/13 03:34:22;;;;;;;14.60;10.90;;;4.80;97.60;;;;;;6244798;28;20487;-62
2021/12/13 03:37:25;;;;;;;15.97;10.40;;;4.90;97.60;;;;;;6236571;28;20471;-62
2021/12/13 03:40:31;;;;;;;10.73;9.00;;;5.00;97.60;;;;;;6252404;28;20973;-63
2021/12/13 03:43:39;;;;;;;9.77;8.30;;;5.00;97.60;;;;;;6253286;28;20467;-63
2021/12/13 03:46:45;;;;;;;9.70;8.70;;;5.00;97.60;;;;;;6232958;28;20473;-62
2021/12/13 03:49:51;;;;;;;10.60;9.37;;;5.10;97.50;;;;;;6204337;28;20477;-62
2021/12/13 03:53:02;;;;;;;11.27;8.67;;;5.10;97.30;;;;;;6204400;28;20472;-63
2021/12/13 03:56:08;;;;;;;9.53;8.10;;;5.10;97.20;;;;;;6203747;28;20477;-61
2021/12/13 03:59:15;;;;;;;9.33;8.23;;;5.10;97.10;;;;;;6203750;28;20984;-62
2021/12/13 04:02:22;;;;;;;10.27;7.77;;;5.10;96.80;;;;;;6202956;28;20550;-63
2021/12/13 04:05:28;;;;;;;9.10;7.80;;;5.20;96.80;;;;;;6203724;28;20500;-63
2021/12/13 04:08:32;;;;;;;9.90;7.80;;;5.20;96.80;;;;;;6203428;28;20979;-64
2021/12/13 04:11:35;;;;;;;12.50;8.17;;;5.20;96.70;;;;;;6241003;28;20482;-64
2021/12/13 04:14:44;;;;;;;10.03;7.93;;;5.20;96.70;;;;;;6252389;28;20486;-64
2021/12/13 04:17:59;;;;;;;11.90;8.13;;;5.20;96.70;;;;;;6252174;28;20483;-64
2021/12/13 04:21:05;;;;;;;11.43;7.47;;;5.30;96.80;;;;;;6246572;28;20498;-64
2021/12/13 04:24:13;;;;;;;8.80;7.90;;;5.20;96.70;;;;;;6251415;28;20481;-64
2021/12/13 04:27:21;;;;;;;10.63;7.80;;;5.30;96.80;;;;;;6251210;28;20471;-66
2021/12/13 04:30:30;;;;;;;8.90;6.83;;;5.30;96.80;;;;;;6251980;28;20439;-64
2021/12/13 04:33:36;;;;;;;11.10;7.67;;;5.30;96.90;;;;;;6252595;28;20786;-64
2021/12/13 04:36:42;;;;;;;8.17;7.30;;;5.30;96.80;;;;;;6253245;28;20421;-65
2021/12/13 04:39:51;;;;;;;8.80;7.20;;;5.30;96.80;;;;;;6252072;28;20460;-65
2021/12/13 04:42:59;;;;;;;9.80;8.63;;;5.30;96.80;;;;;;6251499;28;20475;-65
2021/12/13 04:46:07;;;;;;;7.40;6.70;;;5.30;96.70;;;;;;6251257;28;20471;-65
2021/12/13 04:49:12;;;;;;;8.13;6.40;;;5.30;96.60;;;;;;6251255;28;20501;-65
2021/12/13 04:52:19;;;;;;;7.17;5.63;;;5.30;96.60;;;;;;6251177;28;20973;-65
2021/12/13 04:55:26;;;;;;;7.70;6.03;;;5.30;96.50;;;;;;6252328;28;20533;-65
2021/12/13 04:58:30;;;;;;;12.17;7.57;;;5.30;96.50;;;;;;6252305;28;20470;-64
2021/12/13 05:01:36;;;;;;;8.70;5.87;;;5.20;96.50;;;;;;6251892;28;20475;-64
2021/12/13 05:04:40;;;;;;;6.50;5.83;;;5.20;96.60;;;;;;6251933;28;20942;-65
2021/12/13 05:07:47;;;;;;;6.90;6.00;;;5.20;96.70;;;;;;6249426;28;20481;-64
2021/12/13 05:10:51;;;;;;;7.33;5.50;;;5.20;96.70;;;;;;6204672;28;20480;-65
2021/12/13 05:13:57;;;;;;;7.97;5.67;;;5.20;96.80;;;;;;6202803;28;20476;-65
2021/12/13 05:17:10;;;;;;;6.37;5.33;;;5.20;96.90;;;;;;6202583;28;20476;-64
2021/12/13 05:20:20;;;;;;;7.37;6.60;;;5.20;96.90;;;;;;6203348;28;20473;-64
2021/12/13 05:23:23;;;;;;;8.90;6.70;;;5.20;96.90;;;;;;6202872;28;20472;-64
2021/12/13 05:26:35;;;;;;;7.03;6.33;;;5.20;97.00;;;;;;6202813;28;20472;-64
2021/12/13 05:29:41;;;;;;;6.17;4.97;;;5.20;97.00;;;;;;6202246;28;21043;-64
2021/12/13 05:32:49;;;;;;;5.87;5.37;;;5.20;96.90;;;;;;6203093;28;20495;-63
2021/12/13 05:35:56;;;;;;;6.67;6.00;;;5.10;97.00;;;;;;6203193;28;20469;-64
2021/12/13 05:39:08;;;;;;;15.13;6.97;;;5.20;97.00;;;;;;6203597;28;20473;-64
2021/12/13 05:42:12;;;;;;;6.33;5.70;;;5.10;97.10;;;;;;6206241;28;20487;-64
2021/12/13 05:45:19;;;;;;;6.00;5.40;;;5.20;97.30;;;;;;6206471;28;20487;-64
2021/12/13 05:48:36;;;;;;;5.90;5.43;;;5.20;97.30;;;;;;6204540;28;20469;-64
2021/12/13 05:51:42;;;;;;;9.20;6.00;;;5.20;97.40;;;;;;6228969;28;20460;-64
2021/12/13 05:54:48;;;;;;;9.60;7.07;;;5.20;97.30;;;;;;6228768;28;20465;-64
2021/12/13 05:57:52;;;;;;;7.20;5.87;;;5.20;97.40;;;;;;6228681;28;20475;-64
2021/12/13 06:00:58;;;;;;;7.23;6.63;;;5.30;97.30;;;;;;6230365;28;20468;-64
2021/12/13 06:04:14;;;;;;;5.37;4.77;;;5.30;97.40;;;;;;6231584;28;20962;-64
2021/12/13 06:07:22;;;;;;;6.97;5.07;;;5.20;97.20;;;;;;6224835;28;20473;-64
2021/12/13 06:10:33;;;;;;;5.10;4.30;;;5.20;97.20;;;;;;6193704;28;20970;-65
2021/12/13 06:13:55;;;;;;;4.83;4.30;;;5.20;97.10;;;;;;6205816;28;20972;-64
2021/12/13 06:17:05;;;;;;;5.00;4.50;;;5.20;97.20;;;;;;6205765;28;20531;-64
2021/12/13 06:20:13;;;;;;;9.27;6.13;;;5.20;97.10;;;;;;6205797;28;20791;-64
2021/12/13 06:23:20;;;;;;;5.83;5.23;;;5.20;97.10;;;;;;6205542;28;20531;-64
2021/12/13 06:26:28;;;;;;;6.80;5.27;;;5.20;97.00;;;;;;6205825;28;20487;-64
2021/12/13 06:29:51;;;;;;;5.70;5.17;;;5.20;97.00;;;;;;6196199;28;20546;-65
2021/12/13 06:32:57;;;;;;;5.47;4.97;;;5.20;97.00;;;;;;6204147;28;20477;-64
2021/12/13 06:36:03;;;;;;;6.20;5.40;;;5.20;97.00;;;;;;6204014;28;20955;-65
2021/12/13 06:39:09;;;;;;;6.97;5.10;;;5.20;96.90;;;;;;6204348;28;20536;-64
2021/12/13 06:42:14;;;;;;;7.50;5.83;;;5.20;96.80;;;;;;6203603;28;20485;-65
2021/12/13 06:45:25;;;;;;;6.00;5.13;;;5.20;96.80;;;;;;6203900;28;20468;-64
2021/12/13 06:48:38;;;;;;;5.97;5.37;;;5.20;96.70;;;;;;6228939;28;20463;-64
2021/12/13 06:51:47;;;;;;;6.07;5.20;;;5.30;96.50;;;;;;6227633;28;20493;-64
2021/12/13 06:54:57;;;;;;;4.90;4.37;;;5.30;96.40;;;;;;6205278;28;20485;-65
2021/12/13 06:58:00;;;;;;;6.23;5.60;;;5.30;96.30;;;;;;6204985;28;20487;-64
2021/12/13 07:01:07;;;;;;;6.30;5.70;;;5.30;96.50;;;;;;6204685;28;20484;-64
2021/12/13 07:04:13;;;;;;;9.60;7.77;;;5.40;96.50;;;;;;6204940;28;20473;-64
2021/12/13 07:07:28;;;;;;;15.53;9.70;;;5.40;96.40;;;;;;6205114;28;20504;-65
2021/12/13 07:10:35;;;;;;;8.33;7.63;;;5.50;96.20;;;;;;6180082;28;20478;-64
2021/12/13 07:13:43;;;;;;;8.33;7.37;;;5.50;95.80;;;;;;6180334;28;20497;-64
2021/12/13 07:16:51;;;;;;;7.40;6.70;;;5.50;95.80;;;;;;6180165;28;20819;-64
2021/12/13 07:19:55;;;;;;;7.20;6.30;;;5.60;96.00;;;;;;6180299;28;20482;-64
2021/12/13 07:22:59;;;;;;;7.93;7.00;;;5.60;95.70;;;;;;6180388;28;20482;-64
2021/12/13 07:26:02;;;;;;;20.20;16.90;;;5.60;95.60;;;;;;6179883;28;20478;-64
2021/12/13 07:29:10;;;;;;;12.17;9.27;;;5.60;95.50;;;;;;6180286;28;20484;-65
2021/12/13 07:32:19;;;;;;;10.17;9.27;;;5.70;95.20;;;;;;6175677;28;20857;-64
2021/12/13 07:35:30;;;;;;;10.97;9.97;;;5.70;95.00;;;;;;6180291;28;20812;-64
2021/12/13 07:38:45;;;;;;;10.20;9.03;;;5.80;94.90;;;;;;6179984;28;20957;-64
2021/12/13 07:41:52;;;;;;;7.10;6.40;;;5.90;94.80;;;;;;6179670;28;20482;-64
2021/12/13 07:44:56;;;;;;;10.20;6.50;;;5.90;94.80;;;;;;6179602;28;20481;-64
2021/12/13 07:48:04;;;;;;;7.87;6.33;;;6.00;94.90;;;;;;6179458;28;20593;-64
2021/12/13 07:51:13;;;;;;;7.93;6.17;;;6.10;94.50;;;;;;6180225;28;20486;-64
2021/12/13 07:54:19;;;;;;;7.70;6.97;;;6.20;94.60;;;;;;6180707;28;20477;-65
2021/12/13 07:57:31;;;;;;;17.23;9.50;;;6.20;94.50;;;;;;6180871;28;20482;-64
2021/12/13 08:00:40;;;;;;;7.60;6.80;;;6.30;94.40;;;;;;6204459;28;20442;-64
2021/12/13 08:03:54;;;;;;;9.93;8.00;;;6.40;94.40;;;;;;6202969;28;20481;-64
2021/12/13 08:07:00;;;;;;;8.00;7.20;;;6.50;94.30;;;;;;6203777;28;20488;-64
2021/12/13 08:10:09;;;;;;;7.27;6.67;;;6.60;93.90;;;;;;6210538;28;20468;-63
2021/12/13 08:13:16;;;;;;;7.23;6.40;;;6.70;93.70;;;;;;6227764;28;20484;-64
2021/12/13 08:16:29;;;;;;;8.27;7.57;;;6.70;93.50;;;;;;6227247;28;20476;-64
2021/12/13 08:19:34;;;;;;;8.03;6.00;;;6.80;93.50;;;;;;6227525;28;20476;-64
2021/12/13 08:22:43;;;;;;;7.10;6.40;;;6.80;93.50;;;;;;6216423;28;20979;-64
2021/12/13 08:25:52;;;;;;;8.63;6.67;;;6.80;93.40;;;;;;6202953;28;20470;-65
2021/12/13 08:28:58;;;;;;;6.63;5.50;;;6.80;93.20;;;;;;6202507;28;20484;-65
2021/12/13 08:32:07;;;;;;;10.00;8.07;;;6.90;93.40;;;;;;6202798;28;20976;-65
2021/12/13 08:35:10;;;;;;;8.97;6.60;;;7.00;93.20;;;;;;6194404;28;20545;-65
2021/12/13 08:38:27;;;;;;;8.10;6.43;;;7.10;92.90;;;;;;6202845;28;20483;-65
2021/12/13 08:41:39;;;;;;;8.03;7.43;;;7.10;92.50;;;;;;6202146;28;20488;-65
2021/12/13 08:44:48;;;;;;;8.30;7.43;;;7.10;92.20;;;;;;6202518;28;20491;-65
2021/12/13 08:47:54;;;;;;;7.67;6.40;;;7.10;92.30;;;;;;6202143;28;20477;-65
2021/12/13 08:51:00;;;;;;;7.47;6.73;;;7.10;92.00;;;;;;6202692;28;20484;-65
2021/12/13 08:54:08;;;;;;;6.40;5.80;;;7.20;92.10;;;;;;6202455;28;20461;-64
2021/12/13 08:57:30;;;;;;;6.10;5.50;;;7.20;91.60;;;;;;6202777;28;20472;-64
2021/12/13 09:00:46;;;;;;;7.23;6.43;;;7.20;91.50;;;;;;6219523;28;20466;-62
2021/12/13 09:03:52;;;;;;;7.47;6.20;;;7.30;91.10;;;;;;6212935;28;20535;-64
2021/12/13 09:06:58;;;;;;;7.37;6.13;;;7.30;90.50;;;;;;6216022;28;20548;-65
2021/12/13 09:10:02;;;;;;;9.37;6.33;;;7.40;89.50;;;;;;6209321;28;20485;-64
2021/12/13 09:13:07;;;;;;;10.30;8.33;;;7.50;89.70;;;;;;6185855;28;20469;-64
2021/12/13 09:16:16;;;;;;;11.20;7.27;;;7.60;89.80;;;;;;6182702;28;20473;-64
2021/12/13 09:19:24;;;;;;;12.10;10.00;;;7.80;90.10;;;;;;6199779;28;20540;-65
2021/12/13 09:22:30;;;;;;;11.90;9.87;;;7.90;90.00;;;;;;6202182;28;20484;-65
2021/12/13 09:25:37;;;;;;;13.03;9.37;;;8.00;89.90;;;;;;6202483;28;20472;-65
2021/12/13 09:28:46;;;;;;;10.37;9.30;;;8.20;87.90;;;;;;6202201;28;20535;-64
2021/12/13 09:31:52;;;;;;;12.83;9.20;;;8.40;87.30;;;;;;6207154;28;20469;-65
2021/12/13 09:35:16;;;;;;;16.80;11.30;;;8.50;87.40;;;;;;6192315;28;20512;-64
2021/12/13 09:38:35;;;;;;;17.50;15.00;;;8.60;87.10;;;;;;6174401;28;20474;-65
2021/12/13 09:41:45;;;;;;;17.37;14.00;;;8.70;88.10;;;;;;6177209;28;20474;-65
2021/12/13 09:45:02;;;;;;;16.00;14.40;;;8.60;89.10;;;;;;6177254;28;20477;-63
2021/12/13 09:48:23;;;;;;;19.37;14.37;;;8.60;89.20;;;;;;6177368;28;20474;-64
2021/12/13 09:51:30;;;;;;;15.90;13.63;;;8.60;89.40;;;;;;6201301;28;20453;-66
2021/12/13 09:54:40;;;;;;;14.80;12.60;;;8.50;88.40;;;;;;6220952;28;21111;-67
2021/12/13 09:57:51;;;;;;;14.80;10.70;;;8.50;88.20;;;;;;6223122;28;20436;-65
2021/12/13 10:01:00;;;;;;;11.17;10.03;;;8.50;88.50;;;;;;6194001;28;20477;-64
2021/12/13 10:04:08;;;;;;;9.07;8.17;;;8.40;87.70;;;;;;6183954;28;20518;-65
2021/12/13 10:07:16;;;;;;;10.50;7.70;;;8.20;85.80;;;;;;6184180;28;20474;-66
2021/12/13 10:10:24;;;;;;;13.23;8.23;;;8.10;85.20;;;;;;6180605;28;20470;-65
2021/12/13 10:13:32;;;;;;;10.27;8.50;;;8.00;85.90;;;;;;6176939;28;20490;-65
2021/12/13 10:16:40;;;;;;;10.43;9.40;;;7.90;86.10;;;;;;6195824;28;20469;-62
2021/12/13 10:19:47;;;;;;;10.47;9.40;;;7.80;86.40;;;;;;6200419;28;20492;-64
2021/12/13 10:22:51;;;;;;;10.53;9.50;;;7.60;87.30;;;;;;6177428;28;20477;-66
2021/12/13 10:26:00;;;;;;;9.77;8.33;;;7.60;88.20;;;;;;6177771;28;20961;-64
2021/12/13 10:29:06;;;;;;;10.77;9.50;;;7.70;88.50;;;;;;6176494;28;20488;-63
2021/12/13 10:32:14;;;;;;;10.53;9.23;;;7.70;88.30;;;;;;6176693;28;20486;-63
2021/12/13 10:35:22;;;;;;;13.07;9.73;;;7.60;87.90;;;;;;6179568;28;20804;-61
2021/12/13 10:38:31;;;;;;;11.03;9.83;;;7.60;89.10;;;;;;6190329;28;20477;-66
2021/12/13 10:41:38;;;;;;;10.80;9.70;;;7.60;89.00;;;;;;6192975;28;20473;-68
2021/12/13 10:44:44;;;;;;;12.93;9.20;;;7.60;89.60;;;;;;6163510;28;20481;-66
2021/12/13 10:47:52;;;;;;;11.40;9.70;;;7.60;89.80;;;;;;6180220;28;20492;-65
2021/12/13 10:50:59;;;;;;;16.07;9.73;;;7.70;89.50;;;;;;6180356;28;20522;-66
2021/12/13 10:54:09;;;;;;;10.90;8.77;;;7.60;89.40;;;;;;6181065;28;20473;-66
2021/12/13 10:57:16;;;;;;;10.80;9.80;;;7.70;88.80;;;;;;6180560;28;20469;-66
2021/12/13 11:00:22;;;;;;;12.47;9.67;;;7.70;89.30;;;;;;6181479;28;20493;-64
2021/12/13 11:03:30;;;;;;;10.47;9.37;;;7.60;89.00;;;;;;6190663;28;20608;-66
2021/12/13 11:06:35;;;;;;;15.30;11.40;;;7.60;89.40;;;;;;6228767;28;20464;-64
2021/12/13 11:09:40;;;;;;;13.80;11.60;;;7.70;89.50;;;;;;6219883;28;20448;-64
2021/12/13 11:12:48;;;;;;;15.30;10.73;;;7.70;90.10;;;;;;6227139;28;20496;-63
2021/12/13 11:15:54;;;;;;;16.80;10.43;;;7.70;90.20;;;;;;6201804;28;20472;-63
2021/12/13 11:18:59;;;;;;;12.33;10.27;;;7.70;90.00;;;;;;6203102;28;20476;-63
2021/12/13 11:22:07;;;;;;;13.23;11.40;;;7.80;90.00;;;;;;6204846;28;20483;-64
2021/12/13 11:25:13;;;;;;;15.13;9.63;;;7.80;89.70;;;;;;6204140;28;20465;-65
2021/12/13 11:28:19;;;;;;;13.90;10.70;;;7.80;88.90;;;;;;6204084;28;20971;-64
2021/12/13 11:32:10;;;;;;;12.93;11.50;;;7.80;88.90;;;;;;6203687;28;20531;-64
2021/12/13 11:35:57;;;;;;;13.37;10.90;;;7.80;88.90;;;;;;6203801;28;20488;-66
2021/12/13 11:39:44;;;;;;;15.10;11.40;;;7.50;89.20;;;;;;6206122;28;20473;-66
2021/12/13 11:43:14;;;;;;;15.97;10.43;;;7.60;90.10;;;;;;6215281;28;20464;-64
2021/12/13 11:46:53;;;;;;;14.90;11.27;;;7.70;89.90;;;;;;6222307;28;20472;-63
2021/12/13 11:50:22;;;;;;;16.50;11.43;;;7.90;89.10;;;;;;6203206;28;20976;-63
2021/12/13 11:53:55;;;;;;;13.50;11.30;;;8.00;89.10;;;;;;6204359;28;20476;-63
2021/12/13 11:57:32;;;;;;;10.00;9.00;;;8.30;88.50;;;;;;6203358;28;20476;-63
2021/12/13 12:01:01;;;;;;;11.00;9.90;;;8.50;87.10;;;;;;6182025;28;20458;-64
2021/12/13 12:04:38;;;;;;;11.27;9.17;;;8.70;85.50;;;;;;6178677;28;20949;-63
2021/12/13 12:08:08;;;;;;;9.47;8.07;;;8.80;84.20;;;;;;6155310;28;20458;-65
2021/12/13 12:11:50;;;;;;;8.83;7.73;;;8.90;84.70;;;;;;6169442;28;20806;-65
2021/12/13 12:14:59;;;;;;;10.90;8.80;;;9.00;84.10;;;;;;6183354;28;20472;-63
2021/12/13 12:18:06;;;;;;;9.43;8.60;;;8.90;83.80;;;;;;6203662;28;20469;-65
2021/12/13 12:21:38;;;;;;;8.47;7.67;;;9.20;83.50;;;;;;6201754;28;20481;-65
2021/12/13 12:24:43;;;;;;;9.23;8.30;;;9.30;82.60;;;;;;6224396;28;20481;-62
2021/12/13 12:27:49;;;;;;;8.00;6.77;;;9.40;81.80;;;;;;6224285;28;20448;-64
2021/12/13 12:30:57;;;;;;;9.87;8.40;;;9.30;81.60;;;;;;6195047;28;20472;-63
2021/12/13 12:34:01;;;;;;;10.90;8.53;;;9.40;81.00;;;;;;6178077;28;20481;-65
2021/12/13 12:37:43;;;;;;;8.70;7.90;;;9.20;81.20;;;;;;6178868;28;20488;-63
2021/12/13 12:40:53;;;;;;;9.70;8.70;;;9.20;82.20;;;;;;6162677;28;20782;-64
2021/12/13 12:43:58;;;;;;;12.73;9.40;;;9.40;81.90;;;;;;6176663;28;20492;-63
2021/12/13 12:47:01;;;;;;;14.97;9.80;;;9.40;80.50;;;;;;6186615;28;20812;-63
2021/12/13 12:50:13;;;;;;;11.73;9.63;;;9.40;81.60;;;;;;6196386;28;20487;-65
2021/12/13 12:53:23;;;;;;;11.63;9.73;;;9.50;81.20;;;;;;6184846;28;20485;-63
2021/12/13 12:56:30;;;;;;;11.47;10.37;;;9.60;82.00;;;;;;6179306;28;20477;-65
2021/12/13 12:59:38;;;;;;;11.33;9.73;;;9.60;80.90;;;;;;6179636;28;20482;-64
2021/12/13 13:02:41;;;;;;;14.67;11.00;;;9.60;80.40;;;;;;6182646;28;20489;-65
2021/12/13 13:05:45;;;;;;;12.37;9.40;;;9.60;80.50;;;;;;6199762;28;20475;-66
2021/12/13 13:08:52;;;;;;;14.13;9.80;;;9.70;79.50;;;;;;6196708;28;20488;-65
2021/12/13 13:11:55;;;;;;;15.53;10.17;;;9.70;79.80;;;;;;6180470;28;20470;-67
2021/12/13 13:15:05;;;;;;;18.47;10.40;;;9.50;80.10;;;;;;6181229;28;20597;-66
2021/12/13 13:18:11;;;;;;;11.87;9.90;;;9.40;80.60;;;;;;6180410;28;20478;-67
2021/12/13 13:21:18;;;;;;;19.70;11.47;;;9.40;81.00;;;;;;6180414;28;20481;-64
2021/12/13 13:24:21;;;;;;;17.33;9.93;;;9.30;80.60;;;;;;6184326;28;20473;-65
2021/12/13 13:27:27;;;;;;;11.93;10.00;;;9.30;80.70;;;;;;6193335;28;20474;-66
2021/12/13 13:30:37;;;;;;;13.63;12.07;;;9.20;81.30;;;;;;6218410;28;20476;-66
2021/12/13 13:33:45;;;;;;;13.47;10.00;;;9.00;81.60;;;;;;6227659;28;20476;-66
2021/12/13 13:36:52;;;;;;;11.03;10.00;;;8.90;82.60;;;;;;6184301;28;20466;-65
2021/12/13 13:39:58;;;;;;;14.63;9.43;;;8.80;83.20;;;;;;6178674;28;20465;-68
2021/12/13 13:43:04;;;;;;;11.80;9.47;;;8.60;82.60;;;;;;6176859;28;20836;-66
2021/12/13 13:46:09;;;;;;;11.57;10.23;;;8.50;83.10;;;;;;6185949;28;20460;-62
2021/12/13 13:49:18;;;;;;;12.67;10.50;;;8.40;84.20;;;;;;6225303;28;20483;-64
2021/12/13 13:52:25;;;;;;;13.63;10.07;;;8.40;84.40;;;;;;6212573;28;20596;-63
2021/12/13 13:55:32;;;;;;;12.70;9.43;;;8.40;84.90;;;;;;6201162;28;20481;-65
2021/12/13 13:58:40;;;;;;;11.67;9.83;;;8.80;85.50;;;;;;6201422;28;20473;-64
2021/12/13 14:01:51;;;;;;;9.47;8.57;;;11.00;82.00;;;;;;6186837;28;20493;-63
2021/12/13 14:05:03;;;;;;;11.73;9.20;;;13.10;71.30;;;;;;6176793;28;20493;-63
2021/12/13 14:08:19;;;;;;;10.50;9.13;;;14.50;65.10;;;;;;6177015;28;20497;-62
2021/12/13 14:11:23;;;;;;;15.70;9.20;;;15.60;59.90;;;;;;6176527;28;20506;-62
2021/12/13 14:14:40;;;;;;;10.67;9.67;;;16.40;56.80;;;;;;6177985;28;20503;-66
2021/12/13 14:17:47;;;;;;;11.53;9.43;;;16.10;54.30;;;;;;6178461;28;20473;-67
2021/12/13 14:20:56;;;;;;;10.67;9.60;;;15.40;54.50;;;;;;6179961;28;20508;-65
2021/12/13 14:24:00;;;;;;;11.43;10.40;;;14.10;55.90;;;;;;6182747;28;20480;-65
2021/12/13 14:27:16;;;;;;;15.43;13.57;;;13.10;58.00;;;;;;6181764;28;20792;-66
2021/12/13 14:30:24;;;;;;;13.07;11.77;;;12.30;60.00;;;;;;6181969;28;20508;-65
2021/12/13 14:33:32;;;;;;;15.60;12.33;;;11.50;62.80;;;;;;6182221;28;20478;-65
2021/12/13 14:36:38;;;;;;;14.47;11.97;;;10.80;64.70;;;;;;6216097;28;20455;-65
2021/12/13 14:39:46;;;;;;;17.97;14.20;;;10.20;67.60;;;;;;6221196;28;20759;-65
2021/12/13 14:42:49;;;;;;;15.17;11.80;;;9.70;71.10;;;;;;6231074;28;20871;-66
2021/12/13 14:45:54;;;;;;;14.23;11.73;;;9.20;73.50;;;;;;6224585;28;20480;-63
2021/12/13 14:49:11;;;;;;;12.20;10.93;;;8.80;75.90;;;;;;6180873;28;20470;-63
2021/12/13 14:52:18;;;;;;;12.53;11.20;;;8.40;78.00;;;;;;6182230;28;20493;-63
2021/12/13 14:55:26;;;;;;;14.50;12.00;;;8.20;79.70;;;;;;6181329;28;20949;-62
2021/12/13 14:58:36;;;;;;;18.17;11.70;;;7.90;81.40;;;;;;6172407;28;20949;-65
2021/12/13 15:01:42;;;;;;;17.43;14.60;;;7.70;83.20;;;;;;6181571;28;20495;-65
2021/12/13 15:04:47;;;;;;;15.17;13.67;;;7.50;85.20;;;;;;6205230;28;20568;-65
2021/12/13 15:07:50;;;;;;;18.07;13.87;;;7.40;86.00;;;;;;6204020;28;20511;-66
2021/12/13 15:10:59;;;;;;;19.27;14.57;;;7.30;87.30;;;;;;6182589;28;20478;-66
2021/12/13 15:14:06;;;;;;;18.50;15.10;;;7.20;88.30;;;;;;6184144;28;20481;-67
2021/12/13 15:17:17;;;;;;;21.90;13.37;;;7.10;89.10;;;;;;6184992;28;20560;-69
2021/12/13 15:20:26;;;;;;;15.00;13.03;;;7.00;89.70;;;;;;6181877;28;20480;-68
2021/12/13 15:23:31;;;;;;;16.40;12.60;;;6.80;90.20;;;;;;6180191;28;20965;-66
2021/12/13 15:26:36;;;;;;;17.67;14.10;;;6.80;90.80;;;;;;6181814;28;20492;-65
2021/12/13 15:29:41;;;;;;;16.10;11.83;;;6.70;91.00;;;;;;6181699;28;20478;-66
2021/12/13 15:32:46;;;;;;;13.67;12.27;;;6.70;91.20;;;;;;6179491;28;20497;-65
2021/12/13 15:35:51;;;;;;;13.63;11.93;;;6.60;91.20;;;;;;6180169;28;20470;-67
2021/12/13 15:39:01;;;;;;;13.83;12.10;;;6.60;91.60;;;;;;6203195;28;20795;-66
2021/12/13 15:42:06;;;;;;;15.30;12.00;;;6.50;91.60;;;;;;6197433;28;20485;-66
2021/12/13 15:45:18;;;;;;;17.63;12.10;;;6.50;91.90;;;;;;6180765;28;20996;-66
2021/12/13 15:51:48;;;;;;;14.80;13.30;;;6.40;92.40;;;;;;6203420;28;20461;-66
2021/12/13 15:54:54;;;;;;;15.67;13.40;;;6.40;92.60;;;;;;6204042;28;20473;-67
2021/12/13 15:58:15;;;;;;;17.43;15.47;;;6.50;93.30;;;;;;6204044;28;20495;-67
2021/12/13 16:01:22;;;;;;;24.83;17.37;;;6.40;92.90;;;;;;6197206;28;20486;-66
2021/12/13 16:04:30;;;;;;;15.93;12.87;;;6.40;93.00;;;;;;6204232;28;20480;-66
2021/12/13 16:07:35;;;;;;;17.57;15.33;;;6.40;93.10;;;;;;6204525;28;20472;-67
2021/12/13 16:10:39;;;;;;;18.20;14.37;;;6.30;93.30;;;;;;6192147;28;20976;-66
2021/12/13 16:13:42;;;;;;;20.03;15.47;;;6.30;93.50;;;;;;6178681;28;20794;-67
2021/12/13 16:16:59;;;;;;;16.90;15.27;;;6.30;93.80;;;;;;6179343;28;20505;-66
2021/12/13 16:20:11;;;;;;;17.27;13.93;;;6.20;94.00;;;;;;6180255;28;20474;-66
2021/12/13 16:23:22;;;;;;;16.07;14.47;;;6.20;94.20;;;;;;6179043;28;20489;-66
2021/12/13 16:26:37;;;;;;;20.70;13.30;;;6.20;94.50;;;;;;6179497;28;20496;-65
2021/12/13 16:29:40;;;;;;;16.50;13.80;;;6.20;94.60;;;;;;6192523;28;20816;-66
2021/12/13 16:32:44;;;;;;;16.83;14.80;;;6.20;94.80;;;;;;6192731;28;20478;-66
2021/12/13 16:35:51;;;;;;;20.77;13.87;;;6.20;94.90;;;;;;6180886;28;20483;-65